Time;durP1;ratioP1;P1;durP2;ratioP2;P2;SDS_P1;SDS_P2;PMS_P1;PMS_P2;Temp;Humidity;BMP_temperature;BMP_pressure;BME280_temperature;BME280_humidity;BME280_pressure;Samples;Min_cycle;Max_cycle;Signal;HPM_P1;HPM_P2
2022/06/09 00:01:30;;;;;;;26.08;3.38;;;;;;;11.57;100.00;100918.34;5053016;28;20107;-77
2022/06/09 00:04:08;;;;;;;19.77;3.25;;;;;;;11.62;100.00;100917.91;5051183;28;20037;-76
2022/06/09 00:06:43;;;;;;;11.60;2.83;;;;;;;11.68;100.00;100922.66;5053390;28;20056;-75
2022/06/09 00:09:09;;;;;;;18.30;2.80;;;;;;;11.73;100.00;100928.38;5053095;28;20033;-77
2022/06/09 00:11:43;;;;;;;20.88;2.78;;;;;;;11.73;100.00;100932.88;5053358;28;20098;-78
2022/06/09 00:14:08;;;;;;;14.43;2.80;;;;;;;11.72;100.00;100933.84;5053413;28;20033;-77
2022/06/09 00:16:35;;;;;;;12.85;2.58;;;;;;;11.74;100.00;100938.06;5052070;28;20075;-77
2022/06/09 00:19:01;;;;;;;9.73;2.50;;;;;;;11.72;100.00;100936.50;5053470;28;20033;-77
2022/06/09 00:21:26;;;;;;;10.70;2.70;;;;;;;11.72;100.00;100933.84;5053023;28;20029;-77
2022/06/09 00:23:52;;;;;;;15.43;3.22;;;;;;;11.71;100.00;100933.03;5052865;28;20086;-77
2022/06/09 00:26:18;;;;;;;9.85;2.30;;;;;;;11.73;100.00;100940.88;5051655;28;20025;-77
2022/06/09 00:28:44;;;;;;;17.10;2.50;;;;;;;11.78;100.00;100941.28;5052970;28;20081;-77
2022/06/09 00:31:09;;;;;;;11.82;2.80;;;;;;;11.83;100.00;100941.69;5052479;28;20029;-78
2022/06/09 00:33:34;;;;;;;22.55;2.97;;;;;;;11.83;100.00;100941.69;5052073;28;20043;-77
2022/06/09 00:36:00;;;;;;;18.10;2.90;;;;;;;11.83;100.00;100936.34;5051777;28;20124;-77
2022/06/09 00:38:25;;;;;;;13.93;2.17;;;;;;;11.83;100.00;100945.19;5051392;28;20039;-78
2022/06/09 00:40:51;;;;;;;21.48;2.72;;;;;;;11.84;100.00;100948.72;5052856;28;20059;-78
2022/06/09 00:43:16;;;;;;;13.38;2.38;;;;;;;11.83;100.00;100952.34;5051007;28;20410;-77
2022/06/09 00:46:10;;;;;;;14.88;2.75;;;;;;;11.87;100.00;100950.22;5052835;28;20093;-78
2022/06/09 00:49:01;;;;;;;17.05;3.08;;;;;;;11.84;100.00;100948.72;5052923;28;20029;-78
2022/06/09 00:51:33;;;;;;;12.73;2.67;;;;;;;11.82;100.00;100953.31;5052922;28;20052;-78
2022/06/09 00:54:08;;;;;;;19.52;2.50;;;;;;;11.80;100.00;100950.81;5052340;28;20025;-77
2022/06/09 00:56:37;;;;;;;18.52;2.88;;;;;;;11.81;100.00;100962.34;5051148;28;20024;-77
2022/06/09 00:59:04;;;;;;;20.35;2.65;;;;;;;11.78;100.00;100963.44;5052807;28;20532;-78
2022/06/09 01:01:29;;;;;;;11.25;2.25;;;;;;;11.75;100.00;100962.91;5052276;28;20036;-78
2022/06/09 01:04:05;;;;;;;14.82;2.97;;;;;;;11.74;100.00;100964.72;5052352;28;20377;-77
2022/06/09 01:06:47;;;;;;;12.73;2.40;;;;;;;11.70;100.00;100965.16;5052183;28;20543;-77
2022/06/09 01:09:17;;;;;;;12.43;1.92;;;;;;;11.71;100.00;100972.16;5050691;28;20039;-78
2022/06/09 01:11:45;;;;;;;17.75;2.78;;;;;;;11.73;100.00;100965.69;5052488;28;20029;-77
2022/06/09 01:14:15;;;;;;;16.77;3.05;;;;;;;11.71;100.00;100972.16;5052292;28;20465;-77
2022/06/09 01:16:55;;;;;;;17.58;2.25;;;;;;;11.72;100.00;100963.16;5052347;28;20120;-77
2022/06/09 01:19:48;;;;;;;15.30;2.40;;;;;;;11.72;100.00;100979.16;5052212;28;20033;-77
2022/06/09 01:22:19;;;;;;;9.18;2.40;;;;;;;11.66;100.00;100977.94;5052738;28;20029;-79
2022/06/09 01:25:11;;;;;;;12.50;2.30;;;;;;;11.62;100.00;100979.19;5051862;28;20029;-76
2022/06/09 01:27:45;;;;;;;;;;;;;;;11.63;100.00;100980.88;5052371;28;20029;-77
2022/06/09 01:30:40;;;;;;;9.80;2.40;;;;;;;11.64;100.00;100991.41;5052259;28;19919;-77
2022/06/09 01:33:40;;;;;;;14.02;2.53;;;;;;;11.65;100.00;100998.41;5050497;28;20387;-77
2022/06/09 01:36:19;;;;;;;10.27;2.35;;;;;;;11.60;100.00;101000.66;5051812;28;20035;-77
2022/06/09 01:38:57;;;;;;;12.10;2.30;;;;;;;11.57;100.00;101008.06;5051795;28;20079;-77
2022/06/09 01:41:24;;;;;;;11.57;2.10;;;;;;;11.55;100.00;101002.88;5050839;28;20029;-78
2022/06/09 01:43:54;;;;;;;10.55;2.60;;;;;;;11.50;100.00;100999.81;5052195;28;20040;-77
2022/06/09 01:46:30;;;;;;;10.60;2.47;;;;;;;11.53;100.00;101002.19;5055816;28;20061;-78
2022/06/09 01:49:01;;;;;;;11.52;2.00;;;;;;;11.53;100.00;100991.53;5055897;28;20067;-76
2022/06/09 01:51:32;;;;;;;9.68;2.42;;;;;;;11.48;100.00;100988.47;5055748;28;20051;-77
2022/06/09 01:54:05;;;;;;;8.97;2.13;;;;;;;11.46;100.00;100996.63;5055939;28;20055;-77
2022/06/09 01:56:39;;;;;;;15.05;2.33;;;;;;;11.47;100.00;100992.13;5055599;28;20377;-77
2022/06/09 01:59:14;;;;;;;15.38;2.13;;;;;;;11.49;100.00;101005.28;5055604;28;20020;-77
2022/06/09 02:01:43;;;;;;;5.63;1.80;;;;;;;11.53;100.00;101004.88;5055988;28;20134;-77
2022/06/09 02:04:16;;;;;;;14.52;2.97;;;;;;;11.55;100.00;101005.56;5055649;28;20071;-77
2022/06/09 02:06:42;;;;;;;7.55;1.75;;;;;;;11.60;100.00;100999.81;5055617;28;20037;-77
2022/06/09 02:09:08;;;;;;;7.35;1.70;;;;;;;11.62;100.00;101006.69;5055479;28;20465;-76
2022/06/09 02:11:33;;;;;;;6.63;1.52;;;;;;;11.68;100.00;101002.59;5053626;28;20124;-77
2022/06/09 02:14:00;;;;;;;6.95;1.90;;;;;;;11.77;100.00;101014.25;5055632;28;20025;-78
2022/06/09 02:16:26;;;;;;;19.13;2.20;;;;;;;11.88;100.00;101016.72;5055689;28;20424;-77
2022/06/09 02:18:54;;;;;;;21.85;3.42;;;;;;;11.96;100.00;101024.06;5055805;28;20037;-77
2022/06/09 02:21:27;;;;;;;9.75;1.75;;;;;;;12.02;100.00;101030.63;5056068;28;20043;-76
2022/06/09 02:23:54;;;;;;;10.95;1.92;;;;;;;12.07;100.00;101025.72;5055745;28;20457;-76
2022/06/09 02:26:20;;;;;;;10.02;2.30;;;;;;;12.13;100.00;101022.47;5055232;28;20048;-76
2022/06/09 02:28:47;;;;;;;13.25;2.30;;;;;;;12.21;100.00;101029.75;5055130;28;20418;-76
2022/06/09 02:31:13;;;;;;;13.50;2.22;;;;;;;12.25;100.00;101031.97;5055106;28;20041;-77
2022/06/09 02:33:38;;;;;;;16.15;3.05;;;;;;;12.25;100.00;101042.66;5054709;28;20060;-77
2022/06/09 02:36:04;;;;;;;15.07;2.25;;;;;;;12.22;100.00;101036.78;5054978;28;20029;-77
2022/06/09 02:38:29;;;;;;;10.70;2.10;;;;;;;12.23;100.00;101038.47;5053916;28;20377;-78
2022/06/09 02:40:55;;;;;;;8.10;1.70;;;;;;;12.26;100.00;101044.34;5055124;28;20385;-77
2022/06/09 02:43:21;;;;;;;9.63;2.20;;;;;;;12.30;100.00;101039.53;5054773;28;20071;-77
2022/06/09 02:45:47;;;;;;;9.85;2.10;;;;;;;12.35;100.00;101047.97;5054578;28;20033;-77
2022/06/09 02:48:13;;;;;;;11.82;1.95;;;;;;;12.38;100.00;101050.34;5054561;28;20039;-77
2022/06/09 02:50:39;;;;;;;8.52;1.67;;;;;;;12.42;100.00;101053.53;5054759;28;20052;-77
2022/06/09 02:53:05;;;;;;;6.28;2.00;;;;;;;12.43;100.00;101056.06;5054681;28;20123;-77
2022/06/09 02:55:30;;;;;;;6.53;2.15;;;;;;;12.44;100.00;101056.94;5053824;28;20024;-78
2022/06/09 02:57:56;;;;;;;14.20;2.17;;;;;;;12.45;100.00;101056.78;5054227;28;20039;-76
2022/06/09 03:00:21;;;;;;;5.45;2.03;;;;;;;12.46;100.00;101062.94;5054304;28;20106;-77
2022/06/09 03:02:53;;;;;;;7.85;2.00;;;;;;;12.49;100.00;101071.50;5036329;28;20075;-78
2022/06/09 03:05:18;;;;;;;10.18;1.65;;;;;;;12.51;100.00;101069.53;5054893;28;20025;-77
2022/06/09 03:07:44;;;;;;;4.43;1.45;;;;;;;12.56;100.00;101065.59;5053386;28;20036;-77
2022/06/09 03:10:13;;;;;;;7.10;1.80;;;;;;;12.56;100.00;101065.59;5053004;28;20479;-77
2022/06/09 03:12:38;;;;;;;8.57;1.60;;;;;;;12.55;100.00;101062.06;5053998;28;20474;-77
2022/06/09 03:15:07;;;;;;;8.10;1.60;;;;;;;12.52;100.00;101073.03;5054389;28;20102;-77
2022/06/09 03:17:34;;;;;;;9.18;1.98;;;;;;;12.46;100.00;101078.97;5054300;28;20127;-78
2022/06/09 03:19:59;;;;;;;5.30;1.50;;;;;;;12.45;100.00;101082.59;5054586;28;20029;-77
2022/06/09 03:22:25;;;;;;;7.45;1.92;;;;;;;12.48;100.00;101087.66;5054328;28;20083;-77
2022/06/09 03:24:50;;;;;;;2.53;1.40;;;;;;;12.54;100.00;101089.78;5054505;28;20029;-77
2022/06/09 03:27:16;;;;;;;6.68;1.63;;;;;;;12.61;100.00;101090.00;5054072;28;20443;-77
2022/06/09 03:29:41;;;;;;;3.13;1.33;;;;;;;12.65;100.00;101102.09;5053762;28;20029;-77
2022/06/09 03:32:07;;;;;;;6.45;1.42;;;;;;;12.69;100.00;101106.97;5053303;28;20029;-75
2022/06/09 03:34:32;;;;;;;8.35;1.35;;;;;;;12.69;100.00;101104.31;5054437;28;20037;-78
2022/06/09 03:36:58;;;;;;;8.35;1.70;;;;;;;12.68;100.00;101104.47;5054641;28;20342;-77
2022/06/09 03:39:23;;;;;;;12.98;1.70;;;;;;;12.70;100.00;101110.47;5053726;28;20035;-77
2022/06/09 03:41:48;;;;;;;8.20;1.70;;;;;;;12.69;100.00;101115.00;5053792;28;20393;-77
2022/06/09 03:44:14;;;;;;;9.15;1.63;;;;;;;12.69;100.00;101125.66;5053438;28;20041;-76
2022/06/09 03:46:39;;;;;;;5.72;1.30;;;;;;;12.71;100.00;101130.84;5054042;28;20037;-77
2022/06/09 03:49:04;;;;;;;8.88;1.60;;;;;;;12.76;100.00;101135.75;5053626;28;20082;-77
2022/06/09 03:51:30;;;;;;;11.35;1.77;;;;;;;12.81;100.00;101139.69;5053091;28;20106;-76
2022/06/09 03:53:55;;;;;;;11.48;2.38;;;;;;;12.87;100.00;101147.09;5053428;28;20037;-77
2022/06/09 03:56:22;;;;;;;8.93;2.13;;;;;;;12.93;100.00;101139.47;5053926;28;20100;-77
2022/06/09 03:58:48;;;;;;;6.70;1.67;;;;;;;13.03;100.00;101140.28;5053746;28;20029;-77
2022/06/09 04:01:17;;;;;;;11.02;1.67;;;;;;;13.09;100.00;101144.19;5053117;28;20063;-77
2022/06/09 04:03:44;;;;;;;10.05;1.70;;;;;;;13.14;100.00;101147.28;5053481;28;20056;-76
2022/06/09 04:06:18;;;;;;;9.20;1.80;;;;;;;13.20;100.00;101150.19;5053034;28;20090;-77
2022/06/09 04:08:44;;;;;;;7.57;2.03;;;;;;;13.30;100.00;101155.50;5053586;28;20037;-77
2022/06/09 04:11:10;;;;;;;6.85;1.58;;;;;;;13.40;99.28;101152.78;5053299;28;20380;-77
2022/06/09 04:13:37;;;;;;;9.50;2.05;;;;;;;13.51;99.25;101151.72;5052974;28;20611;-77
2022/06/09 04:16:14;;;;;;;9.77;1.60;;;;;;;13.58;98.68;101166.16;5053231;28;20039;-77
2022/06/09 04:18:39;;;;;;;8.50;1.95;;;;;;;13.64;98.87;101168.22;5052787;28;20029;-78
2022/06/09 04:21:05;;;;;;;8.63;1.48;;;;;;;13.63;98.69;101171.06;5053280;28;20040;-77
2022/06/09 04:23:30;;;;;;;8.25;1.90;;;;;;;13.62;98.76;101175.56;5051674;28;20033;-77
2022/06/09 04:25:55;;;;;;;9.43;1.70;;;;;;;13.64;98.60;101180.78;5051450;28;20426;-77
2022/06/09 04:28:21;;;;;;;10.35;2.50;;;;;;;13.62;98.91;101175.56;5052862;28;20029;-77
2022/06/09 04:30:46;;;;;;;3.55;1.73;;;;;;;13.64;99.45;101184.28;5052719;28;20032;-77
2022/06/09 04:33:12;;;;;;;9.57;1.90;;;;;;;13.63;99.05;101182.63;5051393;28;20048;-77
2022/06/09 04:35:38;;;;;;;10.57;1.85;;;;;;;13.64;98.78;101186.13;5052728;28;20496;-77
2022/06/09 04:38:03;;;;;;;8.00;1.73;;;;;;;13.66;98.97;101189.47;5052612;28;20039;-77
2022/06/09 04:40:38;;;;;;;9.10;1.77;;;;;;;13.70;99.15;101193.53;5052497;28;20061;-77
2022/06/09 04:43:06;;;;;;;12.50;1.63;;;;;;;13.80;99.64;101198.84;5052674;28;20078;-78
2022/06/09 04:45:32;;;;;;;5.63;1.60;;;;;;;13.83;98.54;101196.69;5053028;28;20087;-77
2022/06/09 04:47:57;;;;;;;7.40;1.88;;;;;;;13.89;97.71;101206.75;5052125;28;20072;-77
2022/06/09 04:50:23;;;;;;;5.30;1.70;;;;;;;13.88;97.35;101214.94;5052794;28;20143;-77
2022/06/09 04:52:49;;;;;;;6.60;2.05;;;;;;;13.87;96.99;101213.28;5051804;28;20517;-77
2022/06/09 04:55:17;;;;;;;8.10;2.15;;;;;;;13.85;97.23;101216.13;5052897;28;20115;-77
2022/06/09 04:57:43;;;;;;;6.10;1.60;;;;;;;13.83;98.40;101222.59;5052525;28;20047;-77
2022/06/09 05:00:11;;;;;;;4.50;1.65;;;;;;;13.81;98.72;101225.41;5051809;28;20033;-78
2022/06/09 05:02:36;;;;;;;5.18;1.67;;;;;;;13.75;99.71;101234.88;5052429;28;20484;-77
2022/06/09 05:05:02;;;;;;;7.75;1.90;;;;;;;13.60;100.00;101249.75;5052071;28;20112;-77
2022/06/09 05:07:28;;;;;;;4.55;1.73;;;;;;;13.48;100.00;101258.94;5052439;28;20147;-78
2022/06/09 05:09:54;;;;;;;6.85;1.80;;;;;;;13.33;100.00;101255.88;5052112;28;20075;-76
2022/06/09 05:12:19;;;;;;;8.85;2.13;;;;;;;13.16;100.00;101260.16;5052533;28;20069;-75
2022/06/09 05:14:45;;;;;;;6.57;2.03;;;;;;;13.03;100.00;101266.69;5052374;28;20033;-77
2022/06/09 05:17:10;;;;;;;9.25;2.15;;;;;;;12.88;100.00;101276.97;5053080;28;20037;-77
2022/06/09 05:19:35;;;;;;;8.48;2.20;;;;;;;12.73;100.00;101270.38;5052747;28;20040;-76
2022/06/09 05:22:01;;;;;;;8.57;2.30;;;;;;;12.65;100.00;101283.59;5051662;28;20041;-77
2022/06/09 05:24:26;;;;;;;13.10;3.45;;;;;;;12.55;100.00;101280.09;5053041;28;20377;-78
2022/06/09 05:26:52;;;;;;;8.63;2.50;;;;;;;12.47;100.00;101297.66;5034497;28;20194;-77
2022/06/09 05:29:17;;;;;;;13.75;3.00;;;;;;;12.42;100.00;101302.59;5052570;28;20112;-76
2022/06/09 05:31:43;;;;;;;7.75;3.00;;;;;;;12.39;100.00;101304.66;5052687;28;20037;-77
2022/06/09 05:34:10;;;;;;;5.82;2.60;;;;;;;12.35;100.00;101304.94;5051372;28;20438;-77
2022/06/09 05:36:36;;;;;;;12.18;3.00;;;;;;;12.34;100.00;101311.25;5052636;28;20021;-76
2022/06/09 05:47:12;;;;;;;9.10;2.60;;;;;;;12.23;100.00;101322.06;5052591;28;20051;-73
2022/06/09 05:49:38;;;;;;;11.57;2.60;;;;;;;12.18;100.00;101324.31;5052127;28;20037;-75
2022/06/09 05:52:03;;;;;;;6.60;2.17;;;;;;;12.16;100.00;101327.09;5052579;28;20049;-74
2022/06/09 05:54:29;;;;;;;8.07;2.40;;;;;;;12.12;100.00;101328.38;5050679;28;20037;-75
2022/06/09 05:56:54;;;;;;;8.50;2.53;;;;;;;12.16;100.00;101342.28;5052214;28;20044;-73
2022/06/09 05:59:20;;;;;;;6.63;2.88;;;;;;;12.18;100.00;101340.31;5051956;28;20071;-73
2022/06/09 06:01:45;;;;;;;8.35;3.17;;;;;;;12.21;100.00;101348.06;5052215;28;20041;-74
2022/06/09 06:04:11;;;;;;;9.70;3.28;;;;;;;12.25;100.00;101353.97;5051833;28;20044;-73
2022/06/09 06:06:36;;;;;;;8.98;3.40;;;;;;;12.28;100.00;101354.50;5052302;28;20074;-73
2022/06/09 06:09:07;;;;;;;13.20;3.78;;;;;;;12.33;100.00;101356.75;5050635;28;20029;-73
2022/06/09 06:11:35;;;;;;;14.93;4.15;;;;;;;12.39;100.00;101372.25;5051871;28;20040;-77
2022/06/09 06:14:01;;;;;;;10.60;3.50;;;;;;;12.45;100.00;101363.69;5051876;28;20025;-77
2022/06/09 06:16:27;;;;;;;9.82;3.75;;;;;;;12.50;100.00;101372.09;5052137;28;20393;-74
2022/06/09 06:18:52;;;;;;;6.18;2.88;;;;;;;12.53;100.00;101373.66;5052073;28;20036;-74
2022/06/09 06:21:18;;;;;;;12.60;3.47;;;;;;;12.52;100.00;101369.28;5051972;28;20591;-74
2022/06/09 06:23:43;;;;;;;6.97;3.00;;;;;;;12.54;100.00;101372.69;5051261;28;20492;-74
2022/06/09 06:26:11;;;;;;;6.38;3.00;;;;;;;12.57;100.00;101379.56;5051711;28;20183;-73
2022/06/09 06:28:36;;;;;;;12.18;3.20;;;;;;;12.52;100.00;101383.50;5052176;28;20045;-74
2022/06/09 06:31:02;;;;;;;10.95;2.97;;;;;;;12.53;100.00;101389.69;5052189;28;20071;-74
2022/06/09 06:33:27;;;;;;;7.53;3.40;;;;;;;12.50;100.00;101390.78;5055299;28;20029;-74
2022/06/09 06:35:53;;;;;;;13.27;3.00;;;;;;;12.54;100.00;101391.38;5055411;28;20041;-75
2022/06/09 06:38:19;;;;;;;12.20;3.00;;;;;;;12.67;100.00;101394.63;5055371;28;20124;-74
2022/06/09 06:40:44;;;;;;;11.05;3.38;;;;;;;12.91;100.00;101409.38;5055118;28;20036;-74
2022/06/09 06:43:10;;;;;;;13.02;3.70;;;;;;;13.11;100.00;101402.19;5053612;28;20068;-74
2022/06/09 06:45:35;;;;;;;11.60;3.10;;;;;;;13.35;100.00;101403.63;5055067;28;20044;-74
2022/06/09 06:48:01;;;;;;;10.13;3.08;;;;;;;13.65;100.00;101404.38;5055196;28;20492;-75
2022/06/09 06:50:26;;;;;;;10.70;2.83;;;;;;;13.86;100.00;101407.69;5055239;28;20128;-74
2022/06/09 06:52:52;;;;;;;10.50;2.92;;;;;;;14.09;100.00;101409.97;5054554;28;20041;-74
2022/06/09 06:55:20;;;;;;;8.55;2.17;;;;;;;14.15;100.00;101413.88;5055161;28;20063;-74
2022/06/09 06:57:45;;;;;;;16.67;2.58;;;;;;;14.37;100.00;101418.00;5055296;28;20469;-74
2022/06/09 07:00:15;;;;;;;8.23;2.00;;;;;;;14.58;100.00;101415.88;5055373;28;20037;-74
2022/06/09 07:02:41;;;;;;;8.32;2.10;;;;;;;14.96;100.00;101422.00;5055351;28;20116;-75
2022/06/09 07:05:08;;;;;;;16.20;2.17;;;;;;;15.28;100.00;101417.88;5055600;28;20142;-74
2022/06/09 07:07:35;;;;;;;10.82;2.58;;;;;;;15.54;96.51;101422.44;5055301;28;20036;-74
2022/06/09 07:10:01;;;;;;;7.13;1.90;;;;;;;15.65;93.00;101421.34;5053697;28;20503;-74
2022/06/09 07:12:27;;;;;;;3.38;1.48;;;;;;;15.92;95.30;101425.72;5055305;28;20029;-76
2022/06/09 07:14:52;;;;;;;11.40;1.73;;;;;;;16.20;90.88;101434.38;5055106;28;20029;-74
2022/06/09 07:17:17;;;;;;;8.13;1.92;;;;;;;16.46;87.38;101435.31;5055536;28;20029;-75
2022/06/09 07:19:43;;;;;;;5.95;1.85;;;;;;;16.68;86.15;101434.69;5055335;28;20048;-75
2022/06/09 07:22:08;;;;;;;7.57;1.70;;;;;;;16.78;83.48;101445.31;5054922;28;20491;-75
2022/06/09 07:24:34;;;;;;;8.23;1.92;;;;;;;16.67;82.63;101442.94;5055961;28;20453;-75
2022/06/09 07:26:59;;;;;;;7.70;1.83;;;;;;;16.65;83.33;101451.16;5055461;28;20477;-74
2022/06/09 07:29:25;;;;;;;13.85;2.28;;;;;;;16.63;81.75;101446.94;5055080;28;20037;-75
2022/06/09 07:31:51;;;;;;;7.38;1.77;;;;;;;16.66;84.13;101451.97;5054165;28;20035;-75
2022/06/09 07:34:17;;;;;;;9.25;1.92;;;;;;;16.90;84.04;101465.50;5054887;28;20036;-75
2022/06/09 07:36:42;;;;;;;16.00;1.85;;;;;;;17.13;79.80;101467.56;5054689;28;20140;-75
2022/06/09 07:39:08;;;;;;;9.88;1.88;;;;;;;17.31;79.17;101471.94;5054583;28;20029;-77
2022/06/09 07:41:33;;;;;;;9.05;1.85;;;;;;;17.44;77.85;101470.41;5053327;28;20025;-75
2022/06/09 07:44:01;;;;;;;7.30;1.88;;;;;;;17.44;75.69;101477.66;5054871;28;20025;-75
2022/06/09 07:46:27;;;;;;;8.68;2.13;;;;;;;17.30;76.63;101484.53;5054528;28;20111;-74
2022/06/09 07:48:53;;;;;;;4.85;1.58;;;;;;;17.13;76.76;101486.38;5054592;28;20075;-75
2022/06/09 07:51:18;;;;;;;5.47;1.60;;;;;;;16.93;74.00;101488.53;5054840;28;20048;-75
2022/06/09 07:53:45;;;;;;;5.18;1.65;;;;;;;16.85;75.81;101493.84;5054821;28;20538;-75
2022/06/09 07:56:12;;;;;;;8.10;1.60;;;;;;;16.82;77.77;101491.50;5054175;28;20033;-75
2022/06/09 07:58:38;;;;;;;8.35;1.73;;;;;;;17.08;80.62;101497.63;5054253;28;20029;-75
2022/06/09 08:01:03;;;;;;;5.28;1.58;;;;;;;17.21;72.57;101497.16;5054733;28;20032;-75
2022/06/09 08:03:29;;;;;;;8.05;1.75;;;;;;;17.57;74.95;101502.19;5054630;28;20033;-76
2022/06/09 08:05:54;;;;;;;11.48;1.80;;;;;;;17.77;70.89;101505.34;5054856;28;20059;-75
2022/06/09 08:08:20;;;;;;;11.50;2.55;;;;;;;17.90;70.44;101512.94;5054108;28;20025;-74
2022/06/09 08:10:47;;;;;;;5.97;1.73;;;;;;;17.67;69.97;101510.06;5054372;28;20116;-75
2022/06/09 08:13:13;;;;;;;7.18;1.83;;;;;;;17.52;70.59;101525.22;5054590;28;20560;-75
2022/06/09 08:15:40;;;;;;;5.63;1.85;;;;;;;17.36;70.50;101528.75;5054028;28;20021;-75
2022/06/09 08:18:06;;;;;;;5.05;1.52;;;;;;;17.37;69.45;101527.75;5052802;28;20116;-75
2022/06/09 08:20:34;;;;;;;7.53;2.13;;;;;;;17.32;74.36;101533.63;5053889;28;20442;-75
2022/06/09 08:23:06;;;;;;;7.53;1.65;;;;;;;17.43;75.19;101532.44;5053563;28;20108;-75
2022/06/09 08:25:31;;;;;;;7.60;1.80;;;;;;;17.53;72.05;101541.19;5053480;28;20481;-75
2022/06/09 08:27:57;;;;;;;8.75;1.95;;;;;;;17.59;73.44;101539.69;5054112;28;20059;-75
2022/06/09 08:30:23;;;;;;;9.05;2.10;;;;;;;17.54;71.19;101545.56;5053920;28;20037;-75
2022/06/09 08:32:48;;;;;;;11.52;1.60;;;;;;;17.65;72.46;101552.47;5053776;28;20064;-75
2022/06/09 08:35:16;;;;;;;6.53;1.77;;;;;;;17.89;70.69;101551.63;5054242;28;20495;-75
2022/06/09 08:37:48;;;;;;;7.85;1.60;;;;;;;18.22;68.99;101558.81;5054421;28;20040;-75
2022/06/09 08:40:18;;;;;;;15.02;2.15;;;;;;;18.48;68.05;101555.88;5054301;28;20064;-75
2022/06/09 08:43:02;;;;;;;10.10;2.05;;;;;;;18.82;66.22;101557.41;5054503;28;20437;-76
2022/06/09 08:45:33;;;;;;;7.57;1.95;;;;;;;19.16;64.83;101557.09;5053768;28;20036;-74
2022/06/09 08:48:00;;;;;;;;;;;;;;;19.11;64.94;101564.03;5053969;28;20414;-74
2022/06/09 08:50:37;;;;;;;13.23;2.17;;;;;;;19.07;64.65;101565.41;5053016;28;19917;-76
2022/06/09 08:53:12;;;;;;;9.18;2.38;;;;;;;19.18;62.88;101563.16;5053197;28;20503;-75
2022/06/09 08:55:45;;;;;;;6.65;1.85;;;;;;;20.15;61.32;101575.19;5052894;28;20033;-76
2022/06/09 08:58:36;;;;;;;8.15;2.58;;;;;;;21.51;55.10;101564.00;5053334;28;20029;-76
2022/06/09 09:01:10;;;;;;;8.68;1.90;;;;;;;22.69;54.16;101566.94;5052932;28;20025;-76
2022/06/09 09:03:42;;;;;;;12.40;2.13;;;;;;;23.63;50.29;101561.72;5053434;28;20108;-76
2022/06/09 09:06:38;;;;;;;8.05;1.98;;;;;;;23.94;47.25;101569.31;5053373;28;20036;-76
2022/06/09 09:09:28;;;;;;;8.48;1.98;;;;;;;23.50;48.88;101567.19;5052761;28;20381;-75
2022/06/09 09:12:12;;;;;;;6.93;1.83;;;;;;;23.49;46.34;101563.59;5053331;28;20035;-75
2022/06/09 09:14:37;;;;;;;14.48;2.00;;;;;;;23.98;46.51;101575.13;5053280;28;20064;-77
2022/06/09 09:17:38;;;;;;;5.38;1.83;;;;;;;23.91;46.49;101577.03;5052962;28;20096;-76
2022/06/09 09:20:20;;;;;;;8.85;1.98;;;;;;;24.04;43.16;101584.34;5051622;28;20033;-78
2022/06/09 09:23:07;;;;;;;5.32;2.00;;;;;;;23.83;43.81;101585.38;5052770;28;20315;-72
2022/06/09 09:25:43;;;;;;;10.48;2.00;;;;;;;24.04;44.09;101589.78;5053504;28;20366;-74
2022/06/09 09:28:44;;;;;;;7.47;1.83;;;;;;;24.39;43.49;101598.50;5052859;28;20424;-74
2022/06/09 09:31:36;;;;;;;7.78;2.20;;;;;;;24.75;44.73;101607.19;5052662;28;20056;-74
2022/06/09 09:34:04;;;;;;;10.13;2.10;;;;;;;25.10;41.70;101596.78;5052279;28;20037;-75
2022/06/09 09:36:35;;;;;;;6.03;1.90;;;;;;;25.15;43.54;101599.69;5052672;28;20040;-74
2022/06/09 09:39:17;;;;;;;;;;;;;;;25.33;41.88;101607.16;5053849;28;20082;-74
2022/06/09 09:41:43;;;;;;;5.10;1.80;;;;;;;24.64;44.48;101606.81;5053036;28;19936;-74
2022/06/09 09:44:21;;;;;;;7.15;1.98;;;;;;;24.85;44.97;101609.47;5052644;28;20462;-74
2022/06/09 09:46:50;;;;;;;5.50;1.92;;;;;;;25.66;43.99;101603.38;5052268;28;20362;-74
2022/06/09 09:49:23;;;;;;;6.55;2.00;;;;;;;25.96;41.39;101619.06;5052601;28;20119;-75
2022/06/09 09:51:49;;;;;;;6.55;1.92;;;;;;;25.58;41.13;101630.88;5050936;28;20513;-75
2022/06/09 09:54:29;;;;;;;12.25;2.10;;;;;;;25.07;42.96;101629.06;5052588;28;20040;-75
2022/06/09 09:57:30;;;;;;;11.23;2.50;;;;;;;25.18;43.35;101625.63;5052678;28;20035;-74
2022/06/09 09:59:58;;;;;;;7.40;2.10;;;;;;;25.92;42.41;101639.63;5030741;28;20287;-75
2022/06/09 10:08:38;;;;;;;15.15;2.22;;;;;;;25.69;41.87;101651.13;5046107;28;20029;-74
2022/06/09 10:11:53;;;;;;;14.23;2.45;;;;;;;25.99;41.68;101655.97;5056281;28;20065;-74
2022/06/09 10:13:59;;;;;;;8.77;2.33;;;;;;;25.56;40.76;101651.22;5055679;28;20032;-76
2022/06/09 10:16:28;;;;;;;7.15;2.45;;;;;;;25.25;40.01;101666.47;5056264;28;20032;-76
2022/06/09 10:18:59;;;;;;;8.32;2.38;;;;;;;25.24;41.84;101665.59;5056366;28;20029;-75
2022/06/09 10:21:24;;;;;;;18.13;2.83;;;;;;;25.52;42.41;101661.72;5056230;28;20166;-75
2022/06/09 10:23:59;;;;;;;12.73;2.30;;;;;;;26.06;41.17;101655.91;5055978;28;20112;-74
2022/06/09 10:26:44;;;;;;;7.20;2.03;;;;;;;26.02;39.39;101661.81;5056113;28;20029;-75
2022/06/09 10:29:10;;;;;;;7.53;2.20;;;;;;;26.03;39.57;101674.38;5056671;28;20033;-75
2022/06/09 10:31:43;;;;;;;7.35;2.10;;;;;;;25.21;41.74;101674.22;5055729;28;20036;-76
2022/06/09 10:34:20;;;;;;;7.47;2.13;;;;;;;24.82;42.18;101681.47;5056270;28;20140;-75
2022/06/09 10:36:45;;;;;;;14.00;2.17;;;;;;;24.91;44.26;101684.81;5056142;28;20090;-75
2022/06/09 10:39:16;;;;;;;10.38;2.38;;;;;;;25.19;42.81;101689.13;5055772;28;20442;-75
2022/06/09 10:41:48;;;;;;;11.75;2.70;;;;;;;25.39;43.95;101689.88;5055827;28;20484;-74
2022/06/09 10:44:26;;;;;;;9.68;2.85;;;;;;;25.41;41.87;101693.22;5056118;28;20029;-74
2022/06/09 10:56:49;;;;;;;9.60;2.20;;;;;;;25.96;40.44;101700.00;5055929;28;20397;-76
2022/06/09 10:59:22;;;;;;;12.02;2.80;;;;;;;25.83;41.16;101699.03;5054787;28;20441;-75
2022/06/09 11:01:48;;;;;;;12.45;2.85;;;;;;;25.72;40.95;101707.91;5056026;28;20124;-76
2022/06/09 11:04:17;;;;;;;13.27;3.28;;;;;;;25.58;41.78;101711.78;5054080;28;20496;-75
2022/06/09 11:07:10;;;;;;;11.27;2.55;;;;;;;25.45;42.15;101712.69;5054857;28;20389;-75
2022/06/09 11:10:16;;;;;;;8.98;2.47;;;;;;;25.96;38.94;101710.91;5044698;28;20595;-75
2022/06/09 11:12:50;;;;;;;16.42;3.03;;;;;;;25.96;40.72;101709.03;5054859;28;20108;-77
2022/06/09 11:15:38;;;;;;;15.15;3.22;;;;;;;25.47;41.72;101719.59;5054697;28;20040;-76
2022/06/09 11:18:14;;;;;;;12.65;2.83;;;;;;;25.06;41.66;101711.78;5053950;28;20055;-76
2022/06/09 11:20:42;;;;;;;12.23;2.75;;;;;;;24.64;42.13;101710.19;5055665;28;20437;-75
2022/06/09 11:23:44;;;;;;;14.82;2.80;;;;;;;23.97;43.86;101724.81;5055283;28;20033;-75
2022/06/09 11:26:19;;;;;;;11.88;2.78;;;;;;;24.64;42.51;101720.25;5055193;28;20025;-75
2022/06/09 11:28:52;;;;;;;11.40;2.55;;;;;;;25.06;43.41;101719.94;5053436;28;20025;-76
2022/06/09 11:31:47;;;;;;;8.27;2.45;;;;;;;25.59;41.38;101716.16;5054237;28;20473;-75
2022/06/09 11:34:47;;;;;;;14.95;3.20;;;;;;;25.70;40.78;101720.94;5054983;28;20052;-74
2022/06/09 11:37:59;;;;;;;10.88;2.88;;;;;;;24.96;40.67;101721.22;5054957;28;20029;-75
2022/06/09 11:40:47;;;;;;;14.57;2.90;;;;;;;25.61;39.96;101724.97;5015760;28;20033;-74
2022/06/09 11:43:38;;;;;;;18.92;2.70;;;;;;;25.24;40.07;101725.50;5017862;28;20541;-74
2022/06/09 11:46:14;;;;;;;10.88;2.38;;;;;;;24.91;41.54;101725.63;5048581;28;20547;-76
2022/06/09 11:48:44;;;;;;;12.52;2.60;;;;;;;25.57;42.31;101726.44;5054462;28;20462;-74
2022/06/09 11:51:11;;;;;;;13.43;3.17;;;;;;;26.15;41.66;101733.66;5054616;28;20077;-74
2022/06/09 11:53:42;;;;;;;12.30;2.45;;;;;;;26.21;38.80;101722.72;5054175;28;20182;-74
2022/06/09 11:56:34;;;;;;;13.45;2.72;;;;;;;25.79;38.77;101727.78;5054414;28;20029;-74